Estació municipal de Susqueda - Veïnat del Coll (La Selva, )

Consulta les dades en temps real de l'estació municipal de Susqueda - Veïnat del Coll





Hora UTC 12:30
Temperatura 30.3 ºC
Humitat 40.4 %
Pressió 1024.0 hPa
Pluja 0.0 mm
Velocitat vent 6.4 km/h
Direcció vent ENE
Radiació solar 799.0 W/m²

Dades diàries 2026-09-04



Hora UTC (hivern +1h; estiu +2h)
Temperatura (ºC) Humitat (%) Pressió (hPa) Velocitat vent (km/h) Precipitació (mm) Radiació solar (W/m²)
Hora UTC Aire Humitat Pressió Vel. Dir. Vel. Max Dir. Intent. màx 5 min. Rad. Sol.
00:05 21.9 68.1 1025.3 4.7 SW 4.7 WSW 0.0 0.1
00:10 21.8 67.8 1025.3 4.5 SSW 9.2 SSW 0.0 0.1
00:15 21.8 67.3 1025.3 5.3 SSW 10.6 SSW 0.0 0.1
00:20 21.9 67.1 1025.3 5.2 SW 9.5 SSW 0.0 0.1
00:25 22.1 67.4 1025.2 4.9 SW 8.5 SW 0.0 0.1
00:30 22.2 66.9 1025.2 5.0 SW 10.6 SW 0.0 0.1
00:35 22.3 66.1 1025.1 4.9 SW 8.1 SW 0.0 0.1
00:40 22.2 66.0 1025.1 5.2 SW 8.5 SW 0.0 0.1
00:45 22.3 66.3 1025.1 5.0 SW 7.4 SSW 0.0 0.1
00:50 22.3 66.0 1025.1 5.7 SW 10.6 SSW 0.0 0.1
00:55 22.4 66.3 1025.0 5.2 SW 9.5 SSW 0.0 0.1
01:00 22.4 66.0 1025.0 5.1 SW 9.9 SW 0.0 0.1
01:05 22.5 64.8 1024.9 5.3 SW 9.5 WSW 0.0 0.1
01:10 22.5 65.0 1024.9 5.5 SSW 8.1 SSW 0.0 0.1
01:15 22.4 64.8 1024.8 5.2 SSW 9.2 SW 0.0 0.1
01:20 22.5 64.1 1024.8 5.4 SSW 8.8 S 0.0 0.1
01:25 22.5 64.0 1024.8 5.0 SSW 9.5 SSW 0.0 0.1
01:30 22.5 64.0 1024.8 6.2 SSW 8.5 S 0.0 0.1
01:35 22.5 63.1 1024.8 7.0 SSW 12.0 S 0.0 0.1
01:40 22.6 61.7 1024.8 7.3 SSW 11.6 S 0.0 0.1
01:45 22.8 60.9 1024.7 5.9 SSW 9.9 S 0.0 0.1
01:50 22.8 60.8 1024.7 5.7 SSW 10.6 SSW 0.0 0.1
01:55 22.6 61.2 1024.6 5.7 SSW 8.5 S 0.0 0.1
02:00 22.6 61.1 1024.6 6.1 SSW 8.5 SSW 0.0 0.1
02:05 22.5 61.3 1024.6 5.4 SSW 8.5 SSW 0.0 0.1
02:10 22.5 62.3 1024.6 5.1 SSW 7.4 SW 0.0 0.1
02:15 22.5 62.0 1024.5 5.4 SSW 8.8 SSW 0.0 0.1
02:20 22.5 62.3 1024.5 5.2 SSW 8.5 S 0.0 0.1
02:25 22.4 62.1 1024.4 5.8 SSW 8.8 SSW 0.0 0.1
02:30 22.4 59.8 1024.4 5.3 SSW 8.5 S 0.0 0.1
02:35 22.5 60.6 1024.4 3.8 SSW 6.7 SSW 0.0 0.1
02:40 22.2 63.3 1024.4 3.9 SSW 7.1 SSW 0.0 0.1
02:45 22.1 64.5 1024.4 4.5 SSW 8.5 SSW 0.0 0.1
02:50 21.9 65.4 1024.4 4.7 SSW 8.5 SSW 0.0 0.1
02:55 21.9 66.0 1024.4 4.7 SW 7.4 SSW 0.0 0.1
03:00 21.9 66.3 1024.4 4.8 SW 8.5 SW 0.0 0.1
03:05 21.8 66.8 1024.3 4.5 SW 8.1 SSW 0.0 0.1
03:10 21.7 67.7 1024.3 4.7 SW 8.5 S 0.0 0.1
03:15 21.6 68.2 1024.3 4.4 SW 8.5 SSW 0.0 0.1
03:20 21.5 68.6 1024.3 4.4 SW 7.8 SW 0.0 0.1
03:25 21.5 68.7 1024.3 4.3 SW 8.8 SW 0.0 0.1
03:30 21.6 68.9 1024.3 3.9 SW 8.1 SSW 0.0 0.1
03:35 21.5 69.6 1024.2 4.4 SW 7.8 SSW 0.0 0.1
03:40 21.4 69.9 1024.2 4.6 SW 8.1 SW 0.0 0.1
03:45 21.4 69.8 1024.1 5.0 SW 9.5 SW 0.0 0.1
03:50 21.5 69.4 1024.1 5.0 SW 10.2 SSW 0.0 0.1
03:55 21.5 69.1 1024.0 5.5 SW 9.2 SW 0.0 0.1
04:00 21.5 68.3 1024.0 4.7 SW 9.9 SSW 0.0 0.1
04:05 21.4 68.2 1023.9 5.2 SW 9.9 SSW 0.0 0.1
04:10 21.4 68.2 1023.9 5.7 SSW 9.2 WSW 0.0 0.1
04:15 21.5 67.4 1023.9 4.9 SW 8.1 SSW 0.0 0.1
04:20 21.4 67.1 1023.9 4.6 SW 7.4 SSW 0.0 0.1
04:25 21.5 65.7 1023.9 4.9 SW 8.8 S 0.0 0.1
04:30 21.4 66.1 1023.9 5.1 SW 9.2 WSW 0.0 0.1
04:35 21.4 67.0 1023.9 5.7 SSW 10.6 SSW 0.0 0.1
04:40 21.3 68.0 1023.9 5.4 SSW 8.5 SW 0.0 0.1
04:45 21.4 66.0 1023.9 4.9 SSW 8.1 SSW 0.0 0.1
04:50 21.3 68.1 1023.9 4.8 SW 8.8 SW 0.0 0.1
04:55 21.2 69.1 1023.9 4.7 SW 9.2 SSW 0.0 0.1
05:00 21.2 68.7 1023.9 5.3 SSW 7.4 SSW 0.0 0.3
05:05 21.4 64.2 1023.8 3.5 SSE 6.4 SE 0.0 0.8
05:10 21.8 60.1 1023.8 3.5 SE 8.1 SE 0.0 1.7
05:15 22.2 58.8 1023.8 6.7 SSE 16.9 SE 0.0 3.1
05:20 22.7 57.9 1023.8 4.5 SSE 12.0 SE 0.0 6.3
05:25 22.6 58.6 1023.7 3.8 SSE 7.1 SE 0.0 12.7
05:30 22.7 58.6 1023.7 6.4 SE 13.1 SE 0.0 21.4
05:35 22.8 58.6 1023.6 6.5 SSE 12.7 SE 0.0 31.6
05:40 23.1 57.9 1023.6 5.2 SSE 10.6 ESE 0.0 42.4
05:45 23.2 58.4 1023.6 3.3 SSE 7.8 SE 0.0 52.9
05:50 23.4 57.8 1023.6 4.8 SSE 10.2 SE 0.0 68.4
05:55 23.5 57.4 1023.6 2.1 S 6.4 SSW 0.0 81.7
06:00 23.7 56.9 1023.6 2.1 SSE 7.8 S 0.0 95.3
06:05 23.9 56.4 1023.7 1.1 SE 4.2 SW 0.0 108.9
06:10 24.2 56.2 1023.7 1.0 N 4.6 SW 0.0 122.7
06:15 24.3 56.4 1023.8 1.2 N 4.9 N 0.0 136.7
06:20 24.2 56.8 1023.8 3.8 SSE 9.2 SSW 0.0 151.3
06:25 24.3 56.7 1023.8 4.8 E 12.4 E 0.0 165.9
06:30 24.5 56.2 1023.8 2.5 SE 9.9 SSW 0.0 181.1
06:35 24.4 57.0 1023.8 4.3 S 12.4 WSW 0.0 196.6
06:40 24.5 56.5 1023.8 4.1 SW 11.3 E 0.0 212.6
06:45 24.7 55.7 1023.8 3.5 SE 9.2 SSE 0.0 228.5
06:50 24.8 55.4 1023.8 3.1 E 11.3 NW 0.0 244.2
06:55 25.1 54.3 1023.8 2.8 ENE 7.8 ESE 0.0 259.5
07:00 25.5 53.0 1023.8 3.8 NE 9.9 N 0.0 275.6
07:05 25.5 51.6 1023.8 3.8 ENE 9.2 NNW 0.0 290.7
07:10 25.4 50.8 1023.8 4.0 E 9.9 SE 0.0 306.0
07:15 25.4 50.2 1023.8 4.2 E 9.2 N 0.0 321.7
07:20 25.5 50.0 1023.8 3.0 ESE 6.7 SE 0.0 337.6
07:25 25.7 50.1 1023.8 3.9 ENE 12.4 W 0.0 352.9
07:30 26.2 49.3 1023.8 2.9 E 7.1 E 0.0 368.0
07:35 26.1 49.8 1023.9 4.3 E 12.7 NE 0.0 383.5
07:40 26.1 51.0 1023.9 3.8 NE 7.4 NE 0.0 399.1
07:45 26.1 50.5 1023.9 4.3 N 10.2 W 0.0 414.6
07:50 26.0 51.0 1023.9 3.5 SSW 12.7 W 0.0 430.1
07:55 26.3 50.3 1023.9 2.4 NNE 9.5 NNW 0.0 445.2
08:00 26.3 48.9 1023.9 4.7 N 16.9 WNW 0.0 460.2
08:05 26.3 49.9 1023.9 2.8 E 7.4 SE 0.0 474.8
08:10 26.3 49.0 1023.9 1.9 NNW 8.1 N 0.0 488.7
08:15 26.6 48.9 1024.0 2.1 NNE 7.4 NW 0.0 503.0
08:20 26.6 48.7 1024.0 2.8 NE 9.9 NE 0.0 517.6
08:25 26.9 47.7 1024.0 2.6 NNE 8.8 0.0 531.3
08:30 27.1 47.6 1024.0 2.0 NE 6.0 NE 0.0 544.7
08:35 27.5 46.4 1024.1 2.6 ENE 7.8 E 0.0 557.3
08:40 27.0 47.9 1024.1 1.8 NE 6.4 ENE 0.0 570.6
08:45 27.1 47.9 1024.2 2.7 NE 7.1 WNW 0.0 584.1
08:50 27.5 46.8 1024.2 2.2 ENE 5.6 E 0.0 596.8
08:55 27.6 47.2 1024.2 2.5 NNE 7.4 NNE 0.0 609.6
09:00 27.3 47.4 1024.2 2.4 NE 6.4 E 0.0 621.8
09:05 27.7 46.9 1024.3 2.8 NNW 9.9 NW 0.0 633.4
09:10 27.7 47.1 1024.3 2.3 NNE 4.9 ENE 0.0 645.5
09:15 28.2 45.7 1024.4 2.5 NW 8.1 W 0.0 657.6
09:20 28.4 45.3 1024.4 1.9 NNE 4.9 NNE 0.0 669.0
09:25 27.8 46.9 1024.5 1.7 NNE 6.4 NE 0.0 680.1
09:30 28.2 45.9 1024.5 2.7 NNE 7.8 NNE 0.0 690.8
09:35 27.7 47.1 1024.5 2.6 NE 6.4 N 0.0 699.6
09:40 26.9 48.6 1024.5 2.8 NE 7.1 ENE 0.0 710.0
09:45 26.7 49.1 1024.5 2.7 NE 7.8 ENE 0.0 719.1
09:50 27.1 47.9 1024.5 1.6 ENE 4.9 SE 0.0 729.2
09:55 27.9 45.7 1024.5 2.7 ENE 10.2 ENE 0.0 738.6
10:00 27.4 46.1 1024.5 4.0 ENE 10.6 NE 0.0 747.1
10:05 27.3 46.5 1024.5 3.8 E 10.2 ESE 0.0 754.4
10:10 27.8 45.3 1024.5 4.8 E 10.6 E 0.0 763.1
10:15 28.2 44.1 1024.5 5.8 ENE 13.4 E 0.0 768.7
10:20 27.7 45.1 1024.5 4.7 E 11.3 ENE 0.0 776.4
10:25 27.8 44.7 1024.5 4.9 E 12.7 ENE 0.0 782.1
10:30 28.0 44.4 1024.5 3.2 E 9.2 E 0.0 788.6
10:35 28.3 43.6 1024.4 4.6 ENE 10.2 NE 0.0 794.4
10:40 28.2 43.6 1024.4 6.1 E 10.9 ESE 0.0 798.6
10:45 27.7 44.7 1024.4 4.8 E 10.9 ENE 0.0 800.0
10:50 27.5 45.3 1024.4 6.9 E 13.4 ENE 0.0 804.0
10:55 27.5 45.5 1024.4 6.4 E 13.1 ENE 0.0 810.0
11:00 27.9 44.9 1024.4 5.7 ENE 14.1 NE 0.0 813.0
11:05 27.9 44.7 1024.3 5.8 E 12.4 ENE 0.0 815.0
11:10 28.4 43.6 1024.3 6.0 E 12.7 E 0.0 819.0
11:15 27.9 44.7 1024.2 4.3 ENE 8.1 E 0.0 820.0
11:20 28.8 43.0 1024.2 5.3 ENE 17.6 ENE 0.0 820.0
11:25 29.0 42.6 1024.2 7.3 ENE 12.7 E 0.0 820.0
11:30 28.7 43.4 1024.2 5.8 ENE 14.8 E 0.0 819.0
11:35 28.6 43.7 1024.1 4.7 ENE 12.7 ENE 0.0 822.0
11:40 28.7 43.5 1024.1 5.2 ENE 11.6 ENE 0.0 820.0
11:45 28.7 43.5 1024.1 4.4 NE 10.2 ENE 0.0 821.0
11:50 29.0 42.8 1024.1 5.6 ENE 13.1 ENE 0.0 825.0
11:55 29.9 41.0 1024.1 4.8 ENE 12.4 ENE 0.0 818.0
12:00 30.2 40.4 1024.1 5.7 E 12.7 ESE 0.0 817.0
12:05 29.9 40.9 1024.1 6.1 ENE 15.2 ENE 0.0 818.0
12:10 29.7 41.6 1024.1 8.4 ENE 16.9 E 0.0 817.0
12:15 29.9 41.2 1024.0 7.0 NE 16.6 ENE 0.0 813.0
12:20 29.4 42.0 1024.0 5.3 NE 10.9 ENE 0.0 808.0
12:25 29.7 41.7 1024.0 4.8 ENE 10.9 E 0.0 805.0
12:30 30.3 40.4 1024.0 6.4 ENE 14.5 ENE 0.0 799.0
Màxima 30.3 69.9 1025.3 8.4 ENE 17.6 ENE 0.0 825.0
Mínima 20 40.4 1023.6
Total 0.0